Time;durP1;ratioP1;P1;durP2;ratioP2;P2;SDS_P1;SDS_P2;PMS_P1;PMS_P2;Temp;Humidity;BMP_temperature;BMP_pressure;BME280_temperature;BME280_humidity;BME280_pressure;Samples;Min_cycle;Max_cycle;Signal;HPM_P1;HPM_P2
2022/09/24 00:00:52;;;;;;;49.67;40.83;;;12.80;99.90;;;;;;5047651;28;20106;-63
2022/09/24 00:03:23;;;;;;;48.53;40.65;;;12.80;99.90;;;;;;5047553;28;20037;-61
2022/09/24 00:05:50;;;;;;;48.65;41.28;;;12.80;99.90;;;;;;5050089;28;20056;-64
2022/09/24 00:08:17;;;;;;;48.35;40.58;;;12.80;99.90;;;;;;5054739;28;20033;-64
2022/09/24 00:10:44;;;;;;;46.83;41.40;;;12.80;99.90;;;;;;5046289;28;20118;-64
2022/09/24 00:13:13;;;;;;;47.08;40.80;;;12.80;99.90;;;;;;5045899;28;20166;-64
2022/09/24 00:15:42;;;;;;;47.25;41.33;;;12.70;99.90;;;;;;5047113;28;20057;-61
2022/09/24 00:18:10;;;;;;;53.50;41.85;;;12.80;99.90;;;;;;5047235;28;20052;-62
2022/09/24 00:20:37;;;;;;;49.42;41.72;;;12.70;99.90;;;;;;5046539;28;20060;-61
2022/09/24 00:23:04;;;;;;;51.78;43.67;;;12.70;99.90;;;;;;5046993;28;20525;-65
2022/09/24 00:28:15;;;;;;;50.80;43.63;;;12.70;99.90;;;;;;5046405;28;20044;-64
2022/09/24 00:30:42;;;;;;;51.58;44.42;;;12.70;99.90;;;;;;5044963;28;20299;-64
2022/09/24 00:33:09;;;;;;;55.17;45.10;;;12.80;99.90;;;;;;5046637;28;20037;-65
2022/09/24 00:35:35;;;;;;;53.78;46.65;;;12.70;99.90;;;;;;5046286;28;20612;-62
2022/09/24 00:38:01;;;;;;;51.35;45.45;;;12.70;99.90;;;;;;5045625;28;20048;-63
2022/09/24 00:40:28;;;;;;;56.60;47.08;;;12.70;99.90;;;;;;5045445;28;20726;-63
2022/09/24 00:42:54;;;;;;;56.67;45.83;;;12.70;99.90;;;;;;5045480;28;20099;-64
2022/09/24 00:45:20;;;;;;;52.95;46.05;;;12.70;99.90;;;;;;5046071;28;20049;-64
2022/09/24 00:47:47;;;;;;;57.42;48.03;;;12.80;99.90;;;;;;5046081;28;20049;-64
2022/09/24 00:50:22;;;;;;;54.15;45.70;;;12.70;99.90;;;;;;5045501;28;20052;-59
2022/09/24 00:53:02;;;;;;;;;;;12.80;99.90;;;;;;5047364;28;20391;-64
2022/09/24 00:55:28;;;;;;;52.97;45.22;;;12.80;99.90;;;;;;5045675;28;19928;-64
2022/09/24 00:58:00;;;;;;;55.17;46.72;;;12.80;99.90;;;;;;5046408;28;20175;-63
2022/09/24 01:00:26;;;;;;;56.88;48.30;;;12.70;99.90;;;;;;5045742;28;20044;-64
2022/09/24 01:03:03;;;;;;;61.53;49.92;;;12.80;99.90;;;;;;5046194;28;20043;-61
2022/09/24 01:05:30;;;;;;;61.10;51.10;;;12.80;99.90;;;;;;5048464;28;20075;-64
2022/09/24 01:07:56;;;;;;;64.50;51.40;;;12.80;99.90;;;;;;5054675;28;20040;-64
2022/09/24 01:11:03;;;;;;;61.60;49.33;;;12.80;99.90;;;;;;5044817;28;20423;-64
2022/09/24 01:13:39;;;;;;;60.58;50.90;;;12.90;99.90;;;;;;5014484;28;20052;-64
2022/09/24 01:16:30;;;;;;;66.18;52.65;;;12.90;99.90;;;;;;5046349;28;20099;-62
2022/09/24 01:19:09;;;;;;;63.40;51.00;;;12.90;99.90;;;;;;5045527;28;20053;-64
2022/09/24 01:21:54;;;;;;;61.33;50.88;;;12.90;99.90;;;;;;5045258;28;20167;-65
2022/09/24 01:24:54;;;;;;;60.33;49.73;;;12.90;99.90;;;;;;5044282;28;20063;-59
2022/09/24 01:27:37;;;;;;;66.88;51.55;;;12.90;99.90;;;;;;5045045;28;20284;-61
2022/09/24 01:30:10;;;;;;;67.75;53.75;;;12.90;99.90;;;;;;5045738;28;20056;-63
2022/09/24 01:32:52;;;;;;;68.78;54.25;;;12.90;99.90;;;;;;5046124;28;20049;-64
2022/09/24 01:35:20;;;;;;;66.15;52.53;;;12.90;99.90;;;;;;5045748;28;20419;-64
2022/09/24 01:37:55;;;;;;;72.40;56.40;;;13.00;99.90;;;;;;5045162;28;20055;-64
2022/09/24 01:40:24;;;;;;;72.25;55.58;;;13.00;99.90;;;;;;5043706;28;20044;-62
2022/09/24 01:42:51;;;;;;;70.85;56.53;;;12.90;99.90;;;;;;5045390;28;20400;-64
2022/09/24 01:45:18;;;;;;;68.43;54.67;;;12.90;99.90;;;;;;5044019;28;20045;-64
2022/09/24 01:47:44;;;;;;;77.72;58.47;;;12.90;99.90;;;;;;5044298;28;20051;-65
2022/09/24 01:50:15;;;;;;;72.65;57.63;;;12.90;99.90;;;;;;5044531;28;20135;-61
2022/09/24 01:52:59;;;;;;;74.95;58.45;;;12.90;99.90;;;;;;5045223;28;20045;-65
2022/09/24 01:55:29;;;;;;;75.53;59.00;;;12.90;99.90;;;;;;5043644;28;20044;-63
2022/09/24 01:58:03;;;;;;;70.75;57.03;;;13.00;99.90;;;;;;5043379;28;20059;-62
2022/09/24 02:00:29;;;;;;;;;;;13.00;99.90;;;;;;5045432;28;20397;-58
2022/09/24 02:03:13;;;;;;;73.60;57.90;;;12.90;99.90;;;;;;5045274;28;19928;-64
2022/09/24 02:05:46;;;;;;;76.47;59.55;;;12.90;99.90;;;;;;5048478;28;20040;-62
2022/09/24 02:08:19;;;;;;;77.85;59.78;;;12.90;99.90;;;;;;5055229;28;20044;-63
2022/09/24 02:10:54;;;;;;;78.78;60.13;;;13.00;99.90;;;;;;5064116;28;20613;-63
2022/09/24 02:13:24;;;;;;;79.97;60.92;;;12.90;99.90;;;;;;5064090;28;20116;-64
2022/09/24 02:15:54;;;;;;;82.03;62.83;;;13.00;99.90;;;;;;5064263;28;20191;-63
2022/09/24 02:18:24;;;;;;;82.63;61.72;;;12.90;99.90;;;;;;5064709;28;20059;-62
2022/09/24 02:20:51;;;;;;;81.53;61.72;;;12.90;99.90;;;;;;5140137;22;20110;-64
2022/09/24 02:23:19;;;;;;;91.43;67.10;;;12.90;99.90;;;;;;5048963;28;20045;-65
2022/09/24 02:25:53;;;;;;;87.32;64.60;;;12.90;99.90;;;;;;5063196;28;20048;-64
2022/09/24 02:28:19;;;;;;;88.22;65.10;;;12.90;99.90;;;;;;5063955;28;20095;-64
2022/09/24 02:30:54;;;;;;;82.05;62.38;;;12.90;99.90;;;;;;5064749;28;20047;-64
2022/09/24 02:36:07;;;;;;;93.35;71.07;;;13.00;99.90;;;;;;5065201;28;20056;-63
2022/09/24 02:38:33;;;;;;;99.60;71.25;;;12.90;99.90;;;;;;5065167;28;20401;-63
2022/09/24 02:40:59;;;;;;;91.90;69.60;;;12.90;99.90;;;;;;5063294;28;20048;-64
2022/09/24 02:43:25;;;;;;;95.85;71.03;;;13.00;99.90;;;;;;5064628;28;20141;-63
2022/09/24 02:45:50;;;;;;;98.15;71.40;;;12.90;99.90;;;;;;5064528;28;20064;-64
2022/09/24 02:48:16;;;;;;;96.18;68.90;;;12.90;99.90;;;;;;5063927;28;20084;-63
2022/09/24 02:50:42;;;;;;;98.25;68.57;;;12.90;99.90;;;;;;5062371;28;20918;-64
2022/09/24 02:53:07;;;;;;;101.97;73.57;;;12.90;99.90;;;;;;5064174;28;20087;-61
2022/09/24 02:55:33;;;;;;;91.95;69.60;;;12.90;99.90;;;;;;5063249;28;20063;-60
2022/09/24 02:57:59;;;;;;;100.25;71.95;;;12.90;99.90;;;;;;5063873;28;20537;-61
2022/09/24 03:00:24;;;;;;;99.85;73.25;;;12.90;99.90;;;;;;5064005;28;20037;-63
2022/09/24 03:02:50;;;;;;;105.18;73.85;;;12.90;99.90;;;;;;5064153;28;20036;-62
2022/09/24 03:05:17;;;;;;;98.03;71.25;;;12.90;99.90;;;;;;5061264;28;20048;-62
2022/09/24 03:07:43;;;;;;;96.28;72.20;;;12.90;99.90;;;;;;5053178;28;20055;-59
2022/09/24 03:10:09;;;;;;;105.30;73.32;;;12.90;99.90;;;;;;5059018;28;20045;-64
2022/09/24 03:12:35;;;;;;;99.38;69.43;;;12.90;99.90;;;;;;5045212;28;20048;-64
2022/09/24 03:15:01;;;;;;;95.28;68.82;;;12.90;99.90;;;;;;5043610;28;20134;-65
2022/09/24 03:17:27;;;;;;;97.18;70.22;;;12.90;99.90;;;;;;5043811;28;20076;-63
2022/09/24 03:19:53;;;;;;;98.82;70.88;;;12.90;99.90;;;;;;5044707;28;20038;-64
2022/09/24 03:22:19;;;;;;;98.57;70.57;;;12.90;99.90;;;;;;5047365;28;20060;-62
2022/09/24 03:24:45;;;;;;;100.90;71.03;;;12.90;99.90;;;;;;5046830;28;20043;-64
2022/09/24 03:27:10;;;;;;;110.53;73.95;;;12.90;99.90;;;;;;5048793;28;20037;-65
2022/09/24 03:32:20;;;;;;;106.97;74.50;;;13.00;99.90;;;;;;5047615;28;20051;-64
2022/09/24 03:34:46;;;;;;;105.22;71.55;;;13.00;99.90;;;;;;5047679;28;20044;-62
2022/09/24 03:37:12;;;;;;;100.05;69.05;;;13.00;99.90;;;;;;5048013;28;20076;-64
2022/09/24 03:39:38;;;;;;;99.07;69.63;;;13.00;99.90;;;;;;5046696;28;20048;-64
2022/09/24 03:42:03;;;;;;;97.07;69.43;;;12.90;99.90;;;;;;5047274;28;20055;-65
2022/09/24 03:44:29;;;;;;;99.00;68.30;;;12.90;99.90;;;;;;5046864;28;21197;-65
2022/09/24 03:46:55;;;;;;;95.70;63.53;;;12.90;99.90;;;;;;5047350;28;20156;-64
2022/09/24 03:49:22;;;;;;;101.18;70.00;;;12.90;99.90;;;;;;5046937;28;20238;-65
2022/09/24 03:51:49;;;;;;;103.53;71.22;;;12.90;99.90;;;;;;5047127;28;20059;-64
2022/09/24 03:54:15;;;;;;;101.57;69.63;;;12.80;99.90;;;;;;5046082;28;20048;-64
2022/09/24 03:56:41;;;;;;;106.18;73.78;;;12.90;99.90;;;;;;5046798;28;20052;-65
2022/09/24 03:59:09;;;;;;;101.43;71.95;;;12.90;99.90;;;;;;5046197;28;20176;-64
2022/09/24 04:01:36;;;;;;;104.32;71.22;;;12.90;99.90;;;;;;5047693;28;20064;-64
2022/09/24 04:04:02;;;;;;;111.50;72.35;;;12.90;99.90;;;;;;5046760;28;20041;-63
2022/09/24 04:06:28;;;;;;;109.18;74.45;;;12.90;99.90;;;;;;5056100;28;20637;-65
2022/09/24 04:08:54;;;;;;;108.00;72.65;;;12.90;99.90;;;;;;5048462;28;20098;-64
2022/09/24 04:11:21;;;;;;;107.40;72.18;;;12.90;99.90;;;;;;5046457;28;20041;-64
2022/09/24 04:13:46;;;;;;;110.30;72.55;;;12.80;99.90;;;;;;5046924;28;20127;-64
2022/09/24 04:16:12;;;;;;;107.35;70.45;;;12.80;99.90;;;;;;5047337;28;20124;-64
2022/09/24 04:18:38;;;;;;;116.50;74.93;;;12.80;99.90;;;;;;5048399;28;20124;-64
2022/09/24 04:21:04;;;;;;;103.35;70.95;;;12.80;99.90;;;;;;5047112;28;20136;-62
2022/09/24 04:23:30;;;;;;;110.28;74.60;;;12.80;99.90;;;;;;5061202;28;20099;-63
2022/09/24 04:25:57;;;;;;;107.97;73.22;;;12.80;99.90;;;;;;5047326;28;20068;-64
2022/09/24 04:28:24;;;;;;;114.65;76.32;;;12.80;99.90;;;;;;5047100;28;20091;-63
2022/09/24 04:30:50;;;;;;;109.63;69.60;;;12.80;99.90;;;;;;5046505;28;20056;-62
2022/09/24 04:33:15;;;;;;;117.13;75.50;;;12.80;99.90;;;;;;5046630;28;20037;-64
2022/09/24 04:35:41;;;;;;;114.93;73.95;;;12.80;99.90;;;;;;5046723;28;20045;-65
2022/09/24 04:38:07;;;;;;;115.45;74.60;;;12.80;99.90;;;;;;5046891;28;20037;-64
2022/09/24 04:40:33;;;;;;;114.35;74.88;;;12.80;99.90;;;;;;5045176;28;20083;-62
2022/09/24 04:42:58;;;;;;;113.90;72.50;;;12.80;99.90;;;;;;5046134;28;20057;-64
2022/09/24 04:45:25;;;;;;;117.60;76.07;;;12.80;99.90;;;;;;5046044;28;20746;-65
2022/09/24 04:47:54;;;;;;;115.28;75.55;;;12.70;99.90;;;;;;5046008;28;20053;-65
2022/09/24 04:50:21;;;;;;;121.03;77.65;;;12.70;99.90;;;;;;5061952;28;20076;-65
2022/09/24 04:52:47;;;;;;;127.10;77.90;;;12.70;99.90;;;;;;5046686;28;20497;-65
2022/09/24 04:55:13;;;;;;;113.03;72.88;;;12.80;99.90;;;;;;5044866;28;20107;-65
2022/09/24 04:57:40;;;;;;;126.43;77.93;;;12.70;99.90;;;;;;5046031;28;20526;-64
2022/09/24 05:00:13;;;;;;;124.93;76.65;;;12.80;99.90;;;;;;5046263;28;20091;-64
2022/09/24 05:02:39;;;;;;;123.22;78.07;;;12.70;99.90;;;;;;5046171;28;20037;-62
2022/09/24 05:05:05;;;;;;;117.30;74.05;;;12.70;99.90;;;;;;5048067;28;20047;-62
2022/09/24 05:07:31;;;;;;;118.78;76.78;;;12.70;99.90;;;;;;5055372;28;20044;-64
2022/09/24 05:09:56;;;;;;;119.05;75.07;;;12.80;99.90;;;;;;5045310;28;20067;-62
2022/09/24 05:12:22;;;;;;;111.40;72.85;;;12.80;99.90;;;;;;5045443;28;20514;-65
2022/09/24 05:14:48;;;;;;;117.63;72.05;;;12.70;99.90;;;;;;5045291;28;20037;-64
2022/09/24 05:17:14;;;;;;;115.35;72.65;;;12.70;99.90;;;;;;5045688;28;20037;-61
2022/09/24 05:19:40;;;;;;;116.57;73.22;;;12.70;99.90;;;;;;5045556;28;20041;-62
2022/09/24 05:22:05;;;;;;;123.22;77.70;;;12.80;99.90;;;;;;5045894;28;20140;-61
2022/09/24 05:24:31;;;;;;;119.78;74.22;;;12.70;99.90;;;;;;5045488;28;20053;-64
2022/09/24 05:27:09;;;;;;;131.35;78.38;;;12.70;99.90;;;;;;5045649;28;20044;-64
2022/09/24 05:29:41;;;;;;;105.10;69.35;;;12.80;99.90;;;;;;5046261;28;20052;-63
2022/09/24 05:32:14;;;;;;;115.80;72.28;;;12.80;99.90;;;;;;5046234;28;20049;-64
2022/09/24 05:34:41;;;;;;;108.60;70.47;;;12.80;99.90;;;;;;5045676;28;20087;-60
2022/09/24 05:37:07;;;;;;;107.28;70.78;;;12.70;99.90;;;;;;5045761;28;20045;-63
2022/09/24 05:39:33;;;;;;;110.32;71.80;;;12.80;99.90;;;;;;5044528;28;20041;-63
2022/09/24 05:41:59;;;;;;;101.65;66.45;;;12.80;99.90;;;;;;5045131;28;20091;-61
2022/09/24 05:44:25;;;;;;;110.45;70.68;;;12.80;99.90;;;;;;5043041;28;20072;-63
2022/09/24 05:46:51;;;;;;;113.10;72.18;;;12.70;99.90;;;;;;5045392;28;20683;-62
2022/09/24 05:49:17;;;;;;;116.72;72.78;;;12.70;99.90;;;;;;5043594;28;20052;-65
2022/09/24 05:51:43;;;;;;;105.90;72.55;;;12.70;99.90;;;;;;5043038;28;20052;-65
2022/09/24 05:54:10;;;;;;;111.75;69.93;;;12.80;99.90;;;;;;5044738;28;20052;-64
2022/09/24 05:56:36;;;;;;;106.80;71.35;;;12.80;99.90;;;;;;5046007;28;20117;-64
2022/09/24 05:59:03;;;;;;;106.78;69.13;;;12.80;99.90;;;;;;5045206;28;20102;-64
2022/09/24 06:01:28;;;;;;;115.65;72.18;;;12.80;99.90;;;;;;5045701;28;20120;-64
2022/09/24 06:03:55;;;;;;;101.68;67.47;;;12.80;99.90;;;;;;5045215;28;20120;-64
2022/09/24 06:06:22;;;;;;;96.50;62.92;;;12.90;99.90;;;;;;5049090;28;20037;-64
2022/09/24 06:08:48;;;;;;;86.68;57.80;;;12.90;99.90;;;;;;5059663;28;20040;-64
2022/09/24 06:11:13;;;;;;;77.90;53.10;;;12.90;99.90;;;;;;5064667;28;20047;-64
2022/09/24 06:13:39;;;;;;;102.15;66.40;;;13.00;99.90;;;;;;5064984;28;20078;-64
2022/09/24 06:16:09;;;;;;;98.25;63.63;;;13.00;99.90;;;;;;5064591;28;20123;-63
2022/09/24 06:18:40;;;;;;;95.32;63.78;;;13.00;99.90;;;;;;5065497;28;20063;-64
2022/09/24 06:21:09;;;;;;;102.35;66.05;;;12.90;99.90;;;;;;5064838;28;20503;-63
2022/09/24 06:23:35;;;;;;;103.93;66.68;;;12.90;99.90;;;;;;5063813;28;20036;-62
2022/09/24 06:26:01;;;;;;;98.63;65.55;;;12.90;99.90;;;;;;5064408;28;20161;-61
2022/09/24 06:28:27;;;;;;;105.93;66.15;;;12.90;99.90;;;;;;5063853;28;20043;-61
2022/09/24 06:30:53;;;;;;;106.45;65.47;;;12.90;99.90;;;;;;5063589;28;20044;-60
2022/09/24 06:33:19;;;;;;;105.78;67.82;;;12.90;99.90;;;;;;5063954;28;20045;-62
2022/09/24 06:35:47;;;;;;;108.15;66.97;;;13.00;99.90;;;;;;5064802;28;20079;-61
2022/09/24 06:38:15;;;;;;;110.20;67.55;;;13.00;99.90;;;;;;5063937;28;20060;-60
2022/09/24 06:40:44;;;;;;;108.22;67.97;;;13.00;99.90;;;;;;5064574;28;20567;-62
2022/09/24 06:43:11;;;;;;;107.95;65.90;;;13.00;99.90;;;;;;5064354;28;20040;-61
2022/09/24 06:45:36;;;;;;;114.78;67.78;;;13.00;99.90;;;;;;5062992;28;20146;-63
2022/09/24 06:48:04;;;;;;;101.03;61.42;;;13.00;99.90;;;;;;5063311;28;20041;-63
2022/09/24 06:50:31;;;;;;;103.97;60.53;;;13.00;99.90;;;;;;5063639;28;20114;-63
2022/09/24 06:52:58;;;;;;;108.25;64.05;;;13.10;99.90;;;;;;5062410;28;20059;-63
2022/09/24 06:55:24;;;;;;;104.47;64.20;;;13.10;99.90;;;;;;5063056;28;20101;-60
2022/09/24 06:58:04;;;;;;;101.18;60.10;;;13.20;99.90;;;;;;5064004;28;20040;-63
2022/09/24 07:00:30;;;;;;;71.05;46.85;;;13.30;99.90;;;;;;5063089;28;20728;-65
2022/09/24 07:02:55;;;;;;;69.32;44.33;;;13.30;99.90;;;;;;5063436;28;20049;-63
2022/09/24 07:05:21;;;;;;;64.38;39.53;;;13.40;99.90;;;;;;5060145;28;20135;-62
2022/09/24 07:07:47;;;;;;;42.60;27.77;;;13.50;99.90;;;;;;5052481;28;20556;-65
2022/09/24 07:10:13;;;;;;;27.63;12.25;;;13.50;99.90;;;;;;5042538;28;20037;-64
2022/09/24 07:12:40;;;;;;;27.00;10.38;;;13.60;99.90;;;;;;5043636;28;20040;-60
2022/09/24 07:15:07;;;;;;;19.33;7.35;;;13.70;99.90;;;;;;5044522;28;20044;-65
2022/09/24 07:17:33;;;;;;;18.38;7.68;;;13.70;99.90;;;;;;5044590;28;20146;-64
2022/09/24 07:19:58;;;;;;;20.85;6.82;;;13.70;99.90;;;;;;5043724;28;20087;-63
2022/09/24 07:22:24;;;;;;;16.10;4.90;;;13.70;99.90;;;;;;5043876;28;20554;-63
2022/09/24 07:24:50;;;;;;;15.55;4.20;;;13.70;99.90;;;;;;5043200;28;20080;-64
2022/09/24 07:27:16;;;;;;;14.23;3.05;;;13.70;99.90;;;;;;5043854;28;20041;-63
2022/09/24 07:29:41;;;;;;;11.95;3.30;;;13.70;99.90;;;;;;5043455;28;20118;-65
2022/09/24 07:32:07;;;;;;;10.52;2.42;;;13.80;99.90;;;;;;5042649;28;20047;-65
2022/09/24 07:34:33;;;;;;;9.65;2.78;;;13.70;99.90;;;;;;5043340;28;20043;-63
2022/09/24 07:36:59;;;;;;;14.23;2.70;;;13.80;99.90;;;;;;5043896;28;20414;-65
2022/09/24 07:39:25;;;;;;;13.32;2.70;;;13.80;99.90;;;;;;5043400;28;20463;-63
2022/09/24 07:41:51;;;;;;;12.60;2.95;;;13.80;99.90;;;;;;5044160;28;20171;-65
2022/09/24 07:44:22;;;;;;;10.68;2.47;;;13.80;99.90;;;;;;5041937;28;20044;-61
2022/09/24 07:46:49;;;;;;;9.82;2.58;;;13.80;99.90;;;;;;5043690;28;20280;-63
2022/09/24 07:49:15;;;;;;;11.25;2.40;;;13.70;99.90;;;;;;5043369;28;20072;-64
2022/09/24 07:51:41;;;;;;;13.57;2.50;;;13.80;99.90;;;;;;5043559;28;20041;-66
2022/09/24 07:54:07;;;;;;;11.27;2.40;;;13.90;99.90;;;;;;5042984;28;20510;-63
2022/09/24 07:56:34;;;;;;;9.82;2.50;;;13.90;99.90;;;;;;5043754;28;20076;-63
2022/09/24 07:59:00;;;;;;;13.35;2.60;;;14.00;99.90;;;;;;5043012;28;20751;-65
2022/09/24 08:01:26;;;;;;;9.70;2.25;;;14.00;99.90;;;;;;5042684;28;20045;-59
2022/09/24 08:03:52;;;;;;;14.65;2.65;;;14.00;99.90;;;;;;5059032;28;20064;-65
2022/09/24 08:06:20;;;;;;;17.95;3.58;;;14.10;99.90;;;;;;5051733;28;20086;-64
2022/09/24 08:08:49;;;;;;;8.70;2.92;;;14.10;99.90;;;;;;5050500;28;20045;-64
2022/09/24 08:11:16;;;;;;;10.45;3.30;;;14.10;99.90;;;;;;5046082;28;20049;-75
2022/09/24 08:13:42;;;;;;;12.98;3.53;;;14.10;99.90;;;;;;5047198;28;20604;-67
2022/09/24 08:16:08;;;;;;;9.75;2.75;;;14.20;99.90;;;;;;5047275;28;20077;-65
2022/09/24 08:18:34;;;;;;;10.98;2.75;;;14.30;99.90;;;;;;5046315;28;20142;-64
2022/09/24 08:21:05;;;;;;;9.98;2.35;;;14.20;99.90;;;;;;5047324;28;20365;-63
2022/09/24 08:23:31;;;;;;;9.13;2.78;;;14.30;99.90;;;;;;5045960;28;20521;-64
2022/09/24 08:25:57;;;;;;;8.90;2.60;;;14.30;99.90;;;;;;5047044;28;20481;-61
2022/09/24 08:28:23;;;;;;;11.20;2.60;;;14.30;99.90;;;;;;5063627;28;20149;-74
2022/09/24 08:30:49;;;;;;;8.48;2.08;;;14.50;99.90;;;;;;5058024;28;20045;-64
2022/09/24 08:33:15;;;;;;;13.93;2.63;;;14.50;99.90;;;;;;5063431;28;20085;-62
2022/09/24 08:35:40;;;;;;;11.23;2.22;;;14.50;99.90;;;;;;5065369;28;20138;-64
2022/09/24 08:38:07;;;;;;;10.55;2.33;;;14.50;99.90;;;;;;5066101;28;20051;-64
2022/09/24 08:41:02;;;;;;;12.20;3.05;;;14.50;99.90;;;;;;5065302;28;20144;-62
2022/09/24 08:43:39;;;;;;;17.02;3.03;;;14.50;99.90;;;;;;5063424;28;20589;-64
2022/09/24 08:49:30;;;;;;;11.55;2.90;;;14.60;99.90;;;;;;5053193;28;20052;-65
2022/09/24 08:52:14;;;;;;;15.07;2.83;;;14.70;99.90;;;;;;5059806;28;20475;-63
2022/09/24 08:54:42;;;;;;;15.38;2.72;;;14.80;99.90;;;;;;5052559;28;20045;-59
2022/09/24 08:57:14;;;;;;;9.32;2.28;;;14.90;99.90;;;;;;5052233;28;20033;-62
2022/09/24 08:59:44;;;;;;;12.38;2.90;;;14.80;99.90;;;;;;5053568;28;20048;-64
2022/09/24 09:02:32;;;;;;;13.02;2.50;;;14.90;99.90;;;;;;5054373;28;20417;-64
2022/09/24 09:05:19;;;;;;;12.00;2.85;;;14.80;99.90;;;;;;5050307;28;20116;-64
2022/09/24 09:07:58;;;;;;;11.63;2.53;;;14.80;99.90;;;;;;5059584;28;20124;-64
2022/09/24 09:10:38;;;;;;;11.57;2.97;;;14.80;99.90;;;;;;5065491;28;20032;-63
2022/09/24 09:13:34;;;;;;;13.45;2.53;;;14.80;99.90;;;;;;5052514;28;20052;-64
2022/09/24 09:16:10;;;;;;;11.20;3.05;;;14.80;99.90;;;;;;5065358;28;20442;-66
2022/09/24 09:18:40;;;;;;;11.70;2.70;;;14.80;99.90;;;;;;5065165;28;20268;-64
2022/09/24 09:21:33;;;;;;;12.55;2.75;;;14.80;99.90;;;;;;5056981;28;20589;-64
2022/09/24 09:24:01;;;;;;;11.40;2.40;;;14.80;99.90;;;;;;5056831;28;20048;-65
2022/09/24 09:26:27;;;;;;;9.88;2.13;;;14.80;99.90;;;;;;5054406;28;20064;-65
2022/09/24 09:28:58;;;;;;;10.75;2.28;;;14.80;99.90;;;;;;5056509;28;20087;-65
2022/09/24 09:31:48;;;;;;;11.60;2.67;;;14.90;99.90;;;;;;5053317;28;20473;-65
2022/09/24 09:34:23;;;;;;;10.95;2.58;;;14.90;99.90;;;;;;5054800;28;20044;-64
2022/09/24 09:36:57;;;;;;;9.20;2.60;;;14.90;99.90;;;;;;5055028;28;20037;-65
2022/09/24 09:39:37;;;;;;;9.38;2.65;;;14.90;99.90;;;;;;5058435;28;20430;-65
2022/09/24 09:42:22;;;;;;;12.70;2.33;;;14.70;99.90;;;;;;5048208;28;20064;-66
2022/09/24 09:44:48;;;;;;;10.70;2.30;;;14.70;99.90;;;;;;5055760;28;20029;-65
2022/09/24 09:47:25;;;;;;;10.65;2.17;;;14.70;99.90;;;;;;5056453;28;20044;-63
2022/09/24 09:49:56;;;;;;;10.73;2.58;;;14.70;99.90;;;;;;5048191;28;20126;-61
2022/09/24 09:52:26;;;;;;;10.77;2.10;;;14.70;99.90;;;;;;5059515;28;20079;-61
2022/09/24 09:54:51;;;;;;;13.73;2.60;;;14.70;99.90;;;;;;5053811;28;20053;-65
2022/09/24 09:57:24;;;;;;;14.45;2.83;;;14.70;99.90;;;;;;5051681;28;20045;-66
2022/09/24 09:59:53;;;;;;;12.25;2.80;;;14.70;99.90;;;;;;5060924;28;20384;-67
2022/09/24 10:02:32;;;;;;;11.63;2.17;;;14.70;99.90;;;;;;5049945;28;20459;-66
2022/09/24 10:05:01;;;;;;;15.40;2.50;;;14.70;99.90;;;;;;5059198;28;20036;-65
2022/09/24 10:07:27;;;;;;;12.27;2.65;;;14.60;99.90;;;;;;5058827;28;20602;-59
2022/09/24 10:10:15;;;;;;;10.40;1.95;;;14.60;99.90;;;;;;5055793;28;20052;-61
2022/09/24 10:12:41;;;;;;;9.63;2.25;;;14.70;99.90;;;;;;5065409;28;20461;-63
2022/09/24 10:15:18;;;;;;;7.60;2.05;;;14.70;99.90;;;;;;5064827;28;20132;-60
2022/09/24 10:17:46;;;;;;;15.75;2.40;;;14.80;99.90;;;;;;5063158;28;20481;-62
2022/09/24 10:20:28;;;;;;;9.93;2.08;;;14.80;99.90;;;;;;5062006;28;20036;-64
2022/09/24 10:22:58;;;;;;;8.45;1.83;;;14.80;99.90;;;;;;5061529;28;20056;-60
2022/09/24 10:25:29;;;;;;;12.52;1.90;;;14.70;99.90;;;;;;5064306;28;20376;-59
2022/09/24 10:30:32;;;;;;;11.13;2.33;;;14.70;99.90;;;;;;5065144;28;20051;-63
2022/09/24 10:31:10;;;;;;;7.78;1.60;;;14.70;99.90;;;;;;5063931;28;20052;-64
2022/09/24 10:33:41;;;;;;;14.02;2.08;;;14.70;99.90;;;;;;5065284;28;20052;-63
2022/09/24 10:36:18;;;;;;;7.95;1.20;;;14.60;99.90;;;;;;5064591;28;20052;-61
2022/09/24 10:38:44;;;;;;;5.55;1.25;;;14.70;99.90;;;;;;5063282;28;20040;-64
2022/09/24 10:41:29;;;;;;;4.18;1.27;;;14.60;99.90;;;;;;5063499;28;20051;-61
2022/09/24 10:43:59;;;;;;;6.47;1.52;;;14.60;99.90;;;;;;5064239;28;20118;-62
2022/09/24 10:46:27;;;;;;;6.93;1.40;;;14.50;99.90;;;;;;5064185;28;20102;-61
2022/09/24 10:49:20;;;;;;;9.00;1.55;;;14.50;99.90;;;;;;5064118;28;20417;-62
2022/09/24 10:52:01;;;;;;;4.65;0.95;;;14.50;99.90;;;;;;5062533;28;20049;-63
2022/09/24 10:55:20;;;;;;;6.47;1.55;;;14.50;99.90;;;;;;5063650;28;20032;-63
2022/09/24 10:58:04;;;;;;;4.63;1.10;;;14.40;99.90;;;;;;4982781;28;20085;-64
2022/09/24 11:00:39;;;;;;;9.45;1.63;;;14.40;99.90;;;;;;5064762;28;20052;-61
2022/09/24 11:03:27;;;;;;;8.30;1.77;;;14.40;99.90;;;;;;5065274;28;20040;-63
2022/09/24 11:06:00;;;;;;;7.88;1.20;;;14.40;99.90;;;;;;5058178;28;20052;-64
2022/09/24 11:08:42;;;;;;;5.88;1.40;;;14.40;99.90;;;;;;5048746;28;20079;-61
2022/09/24 11:11:16;;;;;;;6.43;1.63;;;14.40;99.90;;;;;;5044503;28;20049;-63
2022/09/24 11:13:48;;;;;;;7.05;1.50;;;14.30;99.90;;;;;;5044455;28;20167;-63
2022/09/24 11:16:39;;;;;;;5.90;1.50;;;14.40;99.90;;;;;;5042787;28;20037;-64
2022/09/24 11:19:26;;;;;;;5.80;1.40;;;14.40;99.90;;;;;;5045158;28;20053;-64
2022/09/24 11:22:27;;;;;;;7.25;1.33;;;14.40;99.90;;;;;;5042411;28;20064;-64
2022/09/24 11:25:20;;;;;;;6.90;1.30;;;14.40;99.90;;;;;;4989482;28;20637;-64
2022/09/24 11:28:00;;;;;;;8.15;1.67;;;14.40;99.90;;;;;;5043440;28;20333;-62
2022/09/24 11:31:12;;;;;;;10.90;1.60;;;14.40;99.90;;;;;;5043978;28;20084;-63
2022/09/24 11:34:08;;;;;;;7.63;1.50;;;14.40;99.90;;;;;;4982002;28;20054;-64
2022/09/24 11:37:00;;;;;;;9.75;1.67;;;14.40;99.90;;;;;;5044314;28;20067;-64
2022/09/24 11:39:47;;;;;;;8.20;2.20;;;14.30;99.90;;;;;;5043337;28;20049;-64
2022/09/24 11:42:21;;;;;;;7.80;1.52;;;14.40;99.90;;;;;;5046171;28;20052;-64
2022/09/24 11:44:56;;;;;;;5.10;1.43;;;14.40;99.90;;;;;;5048399;28;20045;-63
2022/09/24 11:47:53;;;;;;;12.88;2.05;;;14.50;99.90;;;;;;5047170;28;20356;-61
2022/09/24 11:50:38;;;;;;;10.65;1.80;;;14.50;99.90;;;;;;5048011;28;20052;-62
2022/09/24 11:53:22;;;;;;;7.72;1.50;;;14.50;99.90;;;;;;5046873;28;20125;-63
2022/09/24 11:55:53;;;;;;;7.85;1.63;;;14.50;99.90;;;;;;5045952;28;20049;-63
2022/09/24 11:58:38;;;;;;;8.85;1.70;;;14.50;99.90;;;;;;5047509;28;20441;-64
2022/09/24 12:01:13;;;;;;;7.82;1.63;;;14.60;99.90;;;;;;5046110;28;20044;-63
2022/09/24 12:04:09;;;;;;;8.77;1.60;;;14.60;99.90;;;;;;5048118;28;20174;-64
2022/09/24 12:06:41;;;;;;;4.65;1.10;;;14.60;99.90;;;;;;5032661;28;20134;-63
2022/09/24 12:09:22;;;;;;;5.93;1.30;;;14.60;99.90;;;;;;5048186;28;20372;-60
2022/09/24 12:11:54;;;;;;;9.75;1.92;;;14.50;99.90;;;;;;5045494;28;20057;-64
2022/09/24 12:14:30;;;;;;;6.07;1.52;;;14.40;99.90;;;;;;5047399;28;20399;-64
2022/09/24 12:17:02;;;;;;;10.40;1.80;;;14.50;99.90;;;;;;5062744;28;20055;-63
2022/09/24 12:19:37;;;;;;;6.65;1.90;;;14.40;99.90;;;;;;5047097;28;20072;-64
2022/09/24 12:22:04;;;;;;;6.63;1.70;;;14.50;99.90;;;;;;5045807;28;20057;-62
2022/09/24 12:24:36;;;;;;;8.13;1.98;;;14.40;99.90;;;;;;5046663;28;20105;-63
2022/09/24 12:27:19;;;;;;;7.25;2.08;;;14.40;99.90;;;;;;5047071;28;20045;-64
2022/09/24 12:32:53;;;;;;;9.23;2.50;;;14.50;99.90;;;;;;5046302;28;20560;-63
2022/09/24 12:35:27;;;;;;;9.60;2.78;;;14.40;99.90;;;;;;5046312;28;20041;-63
2022/09/24 12:38:02;;;;;;;;;;;14.40;99.90;;;;;;5046861;28;20528;-63
2022/09/24 12:41:01;;;;;;;7.93;2.58;;;14.40;99.90;;;;;;5046964;28;20255;-65
2022/09/24 12:43:30;;;;;;;9.23;3.20;;;14.40;99.90;;;;;;5047604;28;20041;-63
2022/09/24 12:46:00;;;;;;;8.95;3.25;;;14.40;99.90;;;;;;5045997;28;20430;-63
2022/09/24 12:48:29;;;;;;;14.60;4.18;;;14.40;99.90;;;;;;5046025;28;20041;-63
2022/09/24 12:51:01;;;;;;;10.20;4.05;;;14.40;99.90;;;;;;5046305;28;20142;-63
2022/09/24 12:53:36;;;;;;;9.00;4.22;;;14.40;99.90;;;;;;5045310;28;20070;-64
2022/09/24 12:56:04;;;;;;;11.13;4.53;;;14.40;99.90;;;;;;5044987;28;20049;-61
2022/09/24 12:58:40;;;;;;;11.15;3.95;;;14.40;99.90;;;;;;5045377;28;20215;-62
2022/09/24 13:01:24;;;;;;;9.73;3.70;;;14.40;99.90;;;;;;5046051;28;20037;-62
2022/09/24 13:04:04;;;;;;;9.70;3.67;;;14.40;99.90;;;;;;5045470;28;20128;-64
2022/09/24 13:06:31;;;;;;;10.07;4.00;;;14.40;99.90;;;;;;5055003;28;20118;-61